sensor_id;sensor_type;location;lat;lon;timestamp;P1;durP1;ratioP1;P2;durP2;ratioP2
70148;SDS011;57514;52.164;5.282;2022-10-17T00:02:13;18.77;;;8.52;;
70148;SDS011;57514;52.164;5.282;2022-10-17T00:04:40;14.60;;;8.45;;
70148;SDS011;57514;52.164;5.282;2022-10-17T00:07:08;17.23;;;9.20;;
70148;SDS011;57514;52.164;5.282;2022-10-17T00:09:35;16.23;;;8.65;;
70148;SDS011;57514;52.164;5.282;2022-10-17T00:12:02;17.58;;;8.93;;
70148;SDS011;57514;52.164;5.282;2022-10-17T00:14:29;17.20;;;9.57;;
70148;SDS011;57514;52.164;5.282;2022-10-17T00:16:56;19.05;;;8.93;;
70148;SDS011;57514;52.164;5.282;2022-10-17T00:19:23;17.25;;;8.80;;
70148;SDS011;57514;52.164;5.282;2022-10-17T00:21:50;16.60;;;8.85;;
70148;SDS011;57514;52.164;5.282;2022-10-17T00:24:18;15.20;;;9.07;;
70148;SDS011;57514;52.164;5.282;2022-10-17T00:26:45;15.85;;;8.85;;
70148;SDS011;57514;52.164;5.282;2022-10-17T00:29:12;15.65;;;8.95;;
70148;SDS011;57514;52.164;5.282;2022-10-17T00:31:45;19.33;;;9.57;;
70148;SDS011;57514;52.164;5.282;2022-10-17T00:34:12;15.95;;;9.75;;
70148;SDS011;57514;52.164;5.282;2022-10-17T00:36:40;16.45;;;9.10;;
70148;SDS011;57514;52.164;5.282;2022-10-17T00:39:07;16.52;;;9.35;;
70148;SDS011;57514;52.164;5.282;2022-10-17T00:41:35;17.35;;;9.55;;
70148;SDS011;57514;52.164;5.282;2022-10-17T00:44:05;16.40;;;9.00;;
70148;SDS011;57514;52.164;5.282;2022-10-17T00:46:34;16.98;;;10.20;;
70148;SDS011;57514;52.164;5.282;2022-10-17T00:49:08;18.90;;;9.77;;
70148;SDS011;57514;52.164;5.282;2022-10-17T00:51:37;19.23;;;9.07;;
70148;SDS011;57514;52.164;5.282;2022-10-17T00:54:08;17.63;;;9.48;;
70148;SDS011;57514;52.164;5.282;2022-10-17T00:56:35;16.48;;;9.68;;
70148;SDS011;57514;52.164;5.282;2022-10-17T00:59:03;18.23;;;9.50;;
70148;SDS011;57514;52.164;5.282;2022-10-17T01:01:31;16.20;;;9.48;;
70148;SDS011;57514;52.164;5.282;2022-10-17T01:03:58;18.27;;;9.23;;
70148;SDS011;57514;52.164;5.282;2022-10-17T01:06:25;19.65;;;8.95;;
70148;SDS011;57514;52.164;5.282;2022-10-17T01:08:53;17.92;;;8.98;;
70148;SDS011;57514;52.164;5.282;2022-10-17T01:11:22;17.48;;;9.60;;
70148;SDS011;57514;52.164;5.282;2022-10-17T01:14:08;18.83;;;9.52;;
70148;SDS011;57514;52.164;5.282;2022-10-17T01:16:46;17.10;;;8.93;;
70148;SDS011;57514;52.164;5.282;2022-10-17T01:22:17;19.13;;;8.35;;
70148;SDS011;57514;52.164;5.282;2022-10-17T01:24:58;13.90;;;8.50;;
70148;SDS011;57514;52.164;5.282;2022-10-17T01:27:38;17.73;;;9.75;;
70148;SDS011;57514;52.164;5.282;2022-10-17T01:32:53;19.02;;;8.77;;
70148;SDS011;57514;52.164;5.282;2022-10-17T01:35:28;17.45;;;8.55;;
70148;SDS011;57514;52.164;5.282;2022-10-17T01:38:41;14.57;;;8.77;;
70148;SDS011;57514;52.164;5.282;2022-10-17T01:40:56;15.73;;;8.43;;
70148;SDS011;57514;52.164;5.282;2022-10-17T01:43:39;15.52;;;8.85;;
70148;SDS011;57514;52.164;5.282;2022-10-17T01:48:34;17.35;;;8.88;;
70148;SDS011;57514;52.164;5.282;2022-10-17T01:51:05;16.48;;;8.75;;
70148;SDS011;57514;52.164;5.282;2022-10-17T01:53:36;15.45;;;8.82;;
70148;SDS011;57514;52.164;5.282;2022-10-17T01:56:05;19.45;;;9.68;;
70148;SDS011;57514;52.164;5.282;2022-10-17T01:58:35;18.88;;;10.10;;
70148;SDS011;57514;52.164;5.282;2022-10-17T02:01:05;20.23;;;10.32;;
70148;SDS011;57514;52.164;5.282;2022-10-17T02:03:35;18.48;;;9.75;;
70148;SDS011;57514;52.164;5.282;2022-10-17T02:06:04;16.30;;;8.40;;
70148;SDS011;57514;52.164;5.282;2022-10-17T02:08:43;17.83;;;9.20;;
70148;SDS011;57514;52.164;5.282;2022-10-17T02:11:18;19.90;;;11.10;;
70148;SDS011;57514;52.164;5.282;2022-10-17T02:16:50;18.80;;;9.40;;
70148;SDS011;57514;52.164;5.282;2022-10-17T02:21:56;18.15;;;10.35;;
70148;SDS011;57514;52.164;5.282;2022-10-17T02:29:26;21.60;;;10.07;;
70148;SDS011;57514;52.164;5.282;2022-10-17T02:31:58;18.80;;;10.57;;
70148;SDS011;57514;52.164;5.282;2022-10-17T02:34:28;20.63;;;10.55;;
70148;SDS011;57514;52.164;5.282;2022-10-17T02:36:58;19.45;;;11.05;;
70148;SDS011;57514;52.164;5.282;2022-10-17T02:39:27;19.83;;;10.02;;
70148;SDS011;57514;52.164;5.282;2022-10-17T02:41:55;23.52;;;11.27;;
70148;SDS011;57514;52.164;5.282;2022-10-17T02:44:23;21.48;;;11.52;;
70148;SDS011;57514;52.164;5.282;2022-10-17T02:46:53;18.73;;;10.32;;
70148;SDS011;57514;52.164;5.282;2022-10-17T02:49:22;20.77;;;10.75;;
70148;SDS011;57514;52.164;5.282;2022-10-17T02:52:09;26.08;;;11.85;;
70148;SDS011;57514;52.164;5.282;2022-10-17T02:54:42;19.05;;;10.70;;
70148;SDS011;57514;52.164;5.282;2022-10-17T02:57:21;19.88;;;11.18;;
70148;SDS011;57514;52.164;5.282;2022-10-17T02:59:51;22.67;;;11.20;;
70148;SDS011;57514;52.164;5.282;2022-10-17T03:02:18;23.65;;;9.77;;
70148;SDS011;57514;52.164;5.282;2022-10-17T03:04:47;21.33;;;9.55;;
70148;SDS011;57514;52.164;5.282;2022-10-17T03:07:16;19.15;;;10.35;;
70148;SDS011;57514;52.164;5.282;2022-10-17T03:09:43;19.17;;;9.32;;
70148;SDS011;57514;52.164;5.282;2022-10-17T03:12:10;21.30;;;9.95;;
70148;SDS011;57514;52.164;5.282;2022-10-17T03:14:37;17.92;;;9.27;;
70148;SDS011;57514;52.164;5.282;2022-10-17T03:17:05;21.05;;;10.13;;
70148;SDS011;57514;52.164;5.282;2022-10-17T03:19:32;20.77;;;10.88;;
70148;SDS011;57514;52.164;5.282;2022-10-17T03:22:00;15.52;;;8.40;;
70148;SDS011;57514;52.164;5.282;2022-10-17T03:24:31;16.88;;;8.65;;
70148;SDS011;57514;52.164;5.282;2022-10-17T03:26:58;19.85;;;9.88;;
70148;SDS011;57514;52.164;5.282;2022-10-17T03:29:26;15.48;;;7.07;;
70148;SDS011;57514;52.164;5.282;2022-10-17T03:31:54;17.08;;;9.63;;
70148;SDS011;57514;52.164;5.282;2022-10-17T03:34:21;16.00;;;8.63;;
70148;SDS011;57514;52.164;5.282;2022-10-17T03:36:48;18.25;;;10.13;;
70148;SDS011;57514;52.164;5.282;2022-10-17T03:39:17;17.00;;;8.15;;
70148;SDS011;57514;52.164;5.282;2022-10-17T03:41:44;17.70;;;7.97;;
70148;SDS011;57514;52.164;5.282;2022-10-17T03:44:13;17.20;;;8.10;;
70148;SDS011;57514;52.164;5.282;2022-10-17T03:46:40;15.02;;;7.53;;
70148;SDS011;57514;52.164;5.282;2022-10-17T03:49:08;15.65;;;9.25;;
70148;SDS011;57514;52.164;5.282;2022-10-17T03:51:35;15.75;;;8.57;;
70148;SDS011;57514;52.164;5.282;2022-10-17T03:54:07;16.20;;;7.28;;
70148;SDS011;57514;52.164;5.282;2022-10-17T03:56:35;15.35;;;8.25;;
70148;SDS011;57514;52.164;5.282;2022-10-17T03:59:05;20.00;;;9.65;;
70148;SDS011;57514;52.164;5.282;2022-10-17T04:01:35;14.38;;;8.45;;
70148;SDS011;57514;52.164;5.282;2022-10-17T04:04:03;16.13;;;9.20;;
70148;SDS011;57514;52.164;5.282;2022-10-17T04:06:33;16.42;;;8.43;;
70148;SDS011;57514;52.164;5.282;2022-10-17T04:09:00;15.32;;;9.10;;
70148;SDS011;57514;52.164;5.282;2022-10-17T04:11:44;17.50;;;8.55;;
70148;SDS011;57514;52.164;5.282;2022-10-17T04:14:11;16.35;;;9.15;;
70148;SDS011;57514;52.164;5.282;2022-10-17T04:16:40;15.07;;;8.77;;
70148;SDS011;57514;52.164;5.282;2022-10-17T04:19:13;20.35;;;9.32;;
70148;SDS011;57514;52.164;5.282;2022-10-17T04:21:44;15.70;;;8.90;;
70148;SDS011;57514;52.164;5.282;2022-10-17T04:24:12;16.58;;;9.15;;
70148;SDS011;57514;52.164;5.282;2022-10-17T04:26:43;17.48;;;8.65;;
70148;SDS011;57514;52.164;5.282;2022-10-17T04:29:11;16.02;;;8.48;;
70148;SDS011;57514;52.164;5.282;2022-10-17T04:31:40;16.52;;;8.40;;
70148;SDS011;57514;52.164;5.282;2022-10-17T04:34:21;17.58;;;8.48;;
70148;SDS011;57514;52.164;5.282;2022-10-17T04:36:49;19.90;;;9.02;;
70148;SDS011;57514;52.164;5.282;2022-10-17T04:39:17;18.02;;;9.30;;
70148;SDS011;57514;52.164;5.282;2022-10-17T04:41:45;14.55;;;7.43;;
70148;SDS011;57514;52.164;5.282;2022-10-17T04:44:13;18.58;;;9.43;;
70148;SDS011;57514;52.164;5.282;2022-10-17T04:46:45;13.43;;;7.07;;
70148;SDS011;57514;52.164;5.282;2022-10-17T04:49:13;15.15;;;7.63;;
70148;SDS011;57514;52.164;5.282;2022-10-17T04:51:42;17.52;;;8.52;;
70148;SDS011;57514;52.164;5.282;2022-10-17T04:54:17;15.80;;;8.45;;
70148;SDS011;57514;52.164;5.282;2022-10-17T04:56:48;19.60;;;8.38;;
70148;SDS011;57514;52.164;5.282;2022-10-17T04:59:15;15.90;;;8.15;;
70148;SDS011;57514;52.164;5.282;2022-10-17T05:01:44;14.07;;;6.88;;
70148;SDS011;57514;52.164;5.282;2022-10-17T05:04:12;12.93;;;7.07;;
70148;SDS011;57514;52.164;5.282;2022-10-17T05:06:39;14.48;;;7.15;;
70148;SDS011;57514;52.164;5.282;2022-10-17T05:09:34;18.15;;;9.65;;
70148;SDS011;57514;52.164;5.282;2022-10-17T05:12:04;17.08;;;8.60;;
70148;SDS011;57514;52.164;5.282;2022-10-17T05:14:40;14.65;;;8.20;;
70148;SDS011;57514;52.164;5.282;2022-10-17T05:17:08;14.23;;;6.32;;
70148;SDS011;57514;52.164;5.282;2022-10-17T05:19:35;14.45;;;8.70;;
70148;SDS011;57514;52.164;5.282;2022-10-17T05:22:08;16.55;;;8.25;;
70148;SDS011;57514;52.164;5.282;2022-10-17T05:24:35;15.90;;;8.27;;
70148;SDS011;57514;52.164;5.282;2022-10-17T05:27:02;17.23;;;7.40;;
70148;SDS011;57514;52.164;5.282;2022-10-17T05:29:30;15.00;;;7.47;;
70148;SDS011;57514;52.164;5.282;2022-10-17T05:32:08;14.70;;;7.97;;
70148;SDS011;57514;52.164;5.282;2022-10-17T05:34:36;16.05;;;7.75;;
70148;SDS011;57514;52.164;5.282;2022-10-17T05:37:03;17.10;;;8.25;;
70148;SDS011;57514;52.164;5.282;2022-10-17T05:39:32;12.55;;;6.97;;
70148;SDS011;57514;52.164;5.282;2022-10-17T05:41:59;14.30;;;7.40;;
70148;SDS011;57514;52.164;5.282;2022-10-17T05:44:27;13.90;;;7.10;;
70148;SDS011;57514;52.164;5.282;2022-10-17T05:46:57;15.30;;;7.32;;
70148;SDS011;57514;52.164;5.282;2022-10-17T05:49:25;13.32;;;6.18;;
70148;SDS011;57514;52.164;5.282;2022-10-17T05:52:11;14.40;;;7.32;;
70148;SDS011;57514;52.164;5.282;2022-10-17T05:54:55;16.55;;;8.05;;
70148;SDS011;57514;52.164;5.282;2022-10-17T05:57:24;16.45;;;8.27;;
70148;SDS011;57514;52.164;5.282;2022-10-17T05:59:51;15.27;;;8.27;;
70148;SDS011;57514;52.164;5.282;2022-10-17T06:02:19;16.95;;;8.13;;
70148;SDS011;57514;52.164;5.282;2022-10-17T06:04:47;14.20;;;7.55;;
70148;SDS011;57514;52.164;5.282;2022-10-17T06:07:17;15.02;;;7.90;;
70148;SDS011;57514;52.164;5.282;2022-10-17T06:09:45;14.60;;;7.75;;
70148;SDS011;57514;52.164;5.282;2022-10-17T06:12:13;16.42;;;8.75;;
70148;SDS011;57514;52.164;5.282;2022-10-17T06:14:41;18.85;;;8.90;;
70148;SDS011;57514;52.164;5.282;2022-10-17T06:17:10;15.32;;;7.25;;
70148;SDS011;57514;52.164;5.282;2022-10-17T06:19:42;14.55;;;7.70;;
70148;SDS011;57514;52.164;5.282;2022-10-17T06:22:11;14.68;;;7.85;;
70148;SDS011;57514;52.164;5.282;2022-10-17T06:24:38;13.90;;;7.65;;
70148;SDS011;57514;52.164;5.282;2022-10-17T06:27:05;17.65;;;8.40;;
70148;SDS011;57514;52.164;5.282;2022-10-17T06:29:37;14.90;;;6.90;;
70148;SDS011;57514;52.164;5.282;2022-10-17T06:32:05;18.65;;;8.30;;
70148;SDS011;57514;52.164;5.282;2022-10-17T06:34:36;15.90;;;7.82;;
70148;SDS011;57514;52.164;5.282;2022-10-17T06:37:03;15.35;;;8.07;;
70148;SDS011;57514;52.164;5.282;2022-10-17T06:39:33;13.48;;;7.75;;
70148;SDS011;57514;52.164;5.282;2022-10-17T06:42:05;14.70;;;7.13;;
70148;SDS011;57514;52.164;5.282;2022-10-17T06:44:51;13.77;;;7.55;;
70148;SDS011;57514;52.164;5.282;2022-10-17T06:47:34;19.85;;;8.10;;
70148;SDS011;57514;52.164;5.282;2022-10-17T06:50:13;12.20;;;6.05;;
70148;SDS011;57514;52.164;5.282;2022-10-17T06:52:49;15.25;;;7.18;;
70148;SDS011;57514;52.164;5.282;2022-10-17T06:55:35;13.55;;;7.22;;
70148;SDS011;57514;52.164;5.282;2022-10-17T06:58:16;13.45;;;6.47;;
70148;SDS011;57514;52.164;5.282;2022-10-17T07:00:58;15.82;;;8.70;;
70148;SDS011;57514;52.164;5.282;2022-10-17T07:03:26;15.00;;;6.78;;
70148;SDS011;57514;52.164;5.282;2022-10-17T07:05:55;11.77;;;5.97;;
70148;SDS011;57514;52.164;5.282;2022-10-17T07:08:22;13.70;;;7.78;;
70148;SDS011;57514;52.164;5.282;2022-10-17T07:10:49;15.93;;;8.13;;
70148;SDS011;57514;52.164;5.282;2022-10-17T07:13:19;12.93;;;6.35;;
70148;SDS011;57514;52.164;5.282;2022-10-17T07:15:49;17.45;;;7.18;;
70148;SDS011;57514;52.164;5.282;2022-10-17T07:18:16;14.82;;;7.93;;
70148;SDS011;57514;52.164;5.282;2022-10-17T07:20:51;12.98;;;6.82;;
70148;SDS011;57514;52.164;5.282;2022-10-17T07:23:18;15.13;;;7.55;;
70148;SDS011;57514;52.164;5.282;2022-10-17T07:25:45;15.07;;;7.53;;
70148;SDS011;57514;52.164;5.282;2022-10-17T07:28:15;16.13;;;7.40;;
70148;SDS011;57514;52.164;5.282;2022-10-17T07:30:42;14.57;;;8.02;;
70148;SDS011;57514;52.164;5.282;2022-10-17T07:33:11;15.15;;;7.90;;
70148;SDS011;57514;52.164;5.282;2022-10-17T07:35:39;14.50;;;8.60;;
70148;SDS011;57514;52.164;5.282;2022-10-17T07:38:06;13.18;;;7.40;;
70148;SDS011;57514;52.164;5.282;2022-10-17T07:40:34;14.95;;;8.23;;
70148;SDS011;57514;52.164;5.282;2022-10-17T07:43:01;13.88;;;6.70;;
70148;SDS011;57514;52.164;5.282;2022-10-17T07:45:29;13.65;;;7.45;;
70148;SDS011;57514;52.164;5.282;2022-10-17T07:47:56;13.95;;;7.22;;
70148;SDS011;57514;52.164;5.282;2022-10-17T07:50:28;15.82;;;7.95;;
70148;SDS011;57514;52.164;5.282;2022-10-17T07:53:05;15.43;;;8.00;;
70148;SDS011;57514;52.164;5.282;2022-10-17T07:55:32;14.68;;;7.28;;
70148;SDS011;57514;52.164;5.282;2022-10-17T07:57:59;14.52;;;8.15;;
70148;SDS011;57514;52.164;5.282;2022-10-17T08:00:27;15.57;;;6.30;;
70148;SDS011;57514;52.164;5.282;2022-10-17T08:02:53;13.80;;;7.00;;
70148;SDS011;57514;52.164;5.282;2022-10-17T08:05:20;14.52;;;7.57;;
70148;SDS011;57514;52.164;5.282;2022-10-17T08:07:51;14.50;;;7.28;;
70148;SDS011;57514;52.164;5.282;2022-10-17T08:10:24;17.90;;;8.00;;
70148;SDS011;57514;52.164;5.282;2022-10-17T08:12:54;15.18;;;7.10;;
70148;SDS011;57514;52.164;5.282;2022-10-17T08:15:23;12.98;;;5.82;;
70148;SDS011;57514;52.164;5.282;2022-10-17T08:17:57;16.48;;;7.65;;
70148;SDS011;57514;52.164;5.282;2022-10-17T08:20:24;14.27;;;5.90;;
70148;SDS011;57514;52.164;5.282;2022-10-17T08:22:52;37.47;;;7.85;;
70148;SDS011;57514;52.164;5.282;2022-10-17T08:25:19;15.30;;;6.53;;
70148;SDS011;57514;52.164;5.282;2022-10-17T08:27:46;10.27;;;4.80;;
70148;SDS011;57514;52.164;5.282;2022-10-17T08:30:15;15.82;;;8.43;;
70148;SDS011;57514;52.164;5.282;2022-10-17T08:32:42;16.33;;;8.55;;
70148;SDS011;57514;52.164;5.282;2022-10-17T08:35:10;15.68;;;8.43;;
70148;SDS011;57514;52.164;5.282;2022-10-17T08:37:40;16.77;;;7.32;;
70148;SDS011;57514;52.164;5.282;2022-10-17T08:40:09;17.73;;;8.93;;
70148;SDS011;57514;52.164;5.282;2022-10-17T08:42:47;17.95;;;8.23;;
70148;SDS011;57514;52.164;5.282;2022-10-17T08:47:59;12.35;;;6.03;;
70148;SDS011;57514;52.164;5.282;2022-10-17T08:50:29;13.60;;;6.53;;
70148;SDS011;57514;52.164;5.282;2022-10-17T08:53:02;18.38;;;7.95;;
70148;SDS011;57514;52.164;5.282;2022-10-17T08:55:36;14.63;;;6.80;;
70148;SDS011;57514;52.164;5.282;2022-10-17T08:58:20;18.17;;;8.75;;
70148;SDS011;57514;52.164;5.282;2022-10-17T09:01:03;17.25;;;8.57;;
70148;SDS011;57514;52.164;5.282;2022-10-17T09:03:48;18.70;;;8.80;;
70148;SDS011;57514;52.164;5.282;2022-10-17T09:06:24;17.05;;;8.80;;
70148;SDS011;57514;52.164;5.282;2022-10-17T09:11:47;21.27;;;9.38;;
70148;SDS011;57514;52.164;5.282;2022-10-17T09:19:44;20.33;;;9.07;;
70148;SDS011;57514;52.164;5.282;2022-10-17T09:22:19;19.58;;;9.52;;
70148;SDS011;57514;52.164;5.282;2022-10-17T09:24:58;21.33;;;8.80;;
70148;SDS011;57514;52.164;5.282;2022-10-17T09:27:27;21.00;;;9.15;;
70148;SDS011;57514;52.164;5.282;2022-10-17T09:30:11;18.30;;;9.15;;
70148;SDS011;57514;52.164;5.282;2022-10-17T09:33:15;18.63;;;9.10;;
70148;SDS011;57514;52.164;5.282;2022-10-17T09:36:03;20.38;;;9.43;;
70148;SDS011;57514;52.164;5.282;2022-10-17T09:38:38;18.30;;;8.90;;
70148;SDS011;57514;52.164;5.282;2022-10-17T09:41:12;20.95;;;9.60;;
70148;SDS011;57514;52.164;5.282;2022-10-17T09:44:13;19.27;;;9.30;;
70148;SDS011;57514;52.164;5.282;2022-10-17T09:47:12;20.73;;;9.57;;
70148;SDS011;57514;52.164;5.282;2022-10-17T09:49:42;17.58;;;9.15;;
70148;SDS011;57514;52.164;5.282;2022-10-17T09:52:15;20.17;;;9.55;;
70148;SDS011;57514;52.164;5.282;2022-10-17T09:54:47;17.83;;;8.32;;
70148;SDS011;57514;52.164;5.282;2022-10-17T09:57:16;16.40;;;9.23;;
70148;SDS011;57514;52.164;5.282;2022-10-17T09:59:46;19.17;;;8.88;;
70148;SDS011;57514;52.164;5.282;2022-10-17T10:02:21;15.35;;;8.07;;
70148;SDS011;57514;52.164;5.282;2022-10-17T10:04:56;15.95;;;8.15;;
70148;SDS011;57514;52.164;5.282;2022-10-17T10:07:33;19.40;;;8.82;;
70148;SDS011;57514;52.164;5.282;2022-10-17T10:12:30;18.92;;;8.73;;
70148;SDS011;57514;52.164;5.282;2022-10-17T10:14:59;19.67;;;9.00;;
70148;SDS011;57514;52.164;5.282;2022-10-17T10:17:37;19.45;;;9.43;;
70148;SDS011;57514;52.164;5.282;2022-10-17T10:23:03;18.52;;;9.75;;
70148;SDS011;57514;52.164;5.282;2022-10-17T10:25:37;18.85;;;8.60;;
70148;SDS011;57514;52.164;5.282;2022-10-17T10:28:08;18.45;;;8.63;;
70148;SDS011;57514;52.164;5.282;2022-10-17T10:30:36;17.60;;;8.73;;
70148;SDS011;57514;52.164;5.282;2022-10-17T10:33:05;17.45;;;8.50;;
70148;SDS011;57514;52.164;5.282;2022-10-17T10:35:36;17.42;;;8.32;;
70148;SDS011;57514;52.164;5.282;2022-10-17T10:38:08;22.83;;;9.88;;
70148;SDS011;57514;52.164;5.282;2022-10-17T10:40:44;18.60;;;9.25;;
70148;SDS011;57514;52.164;5.282;2022-10-17T10:43:20;14.60;;;7.78;;
70148;SDS011;57514;52.164;5.282;2022-10-17T10:46:04;19.52;;;8.20;;
70148;SDS011;57514;52.164;5.282;2022-10-17T10:48:49;16.88;;;8.57;;
70148;SDS011;57514;52.164;5.282;2022-10-17T10:54:20;17.33;;;9.40;;
70148;SDS011;57514;52.164;5.282;2022-10-17T10:56:50;14.93;;;7.50;;
70148;SDS011;57514;52.164;5.282;2022-10-17T10:59:21;19.52;;;8.55;;
70148;SDS011;57514;52.164;5.282;2022-10-17T11:02:13;16.63;;;8.00;;
70148;SDS011;57514;52.164;5.282;2022-10-17T11:08:09;15.23;;;6.85;;
70148;SDS011;57514;52.164;5.282;2022-10-17T11:10:41;14.55;;;6.13;;
70148;SDS011;57514;52.164;5.282;2022-10-17T11:13:18;10.80;;;5.53;;
70148;SDS011;57514;52.164;5.282;2022-10-17T11:15:56;10.50;;;5.28;;
70148;SDS011;57514;52.164;5.282;2022-10-17T11:18:34;14.77;;;7.63;;
70148;SDS011;57514;52.164;5.282;2022-10-17T11:21:14;14.10;;;6.80;;
70148;SDS011;57514;52.164;5.282;2022-10-17T11:23:50;12.35;;;6.40;;
70148;SDS011;57514;52.164;5.282;2022-10-17T11:26:27;12.13;;;5.25;;
70148;SDS011;57514;52.164;5.282;2022-10-17T11:28:58;11.35;;;5.45;;
70148;SDS011;57514;52.164;5.282;2022-10-17T11:31:36;13.60;;;6.68;;
70148;SDS011;57514;52.164;5.282;2022-10-17T11:34:24;14.15;;;6.50;;
70148;SDS011;57514;52.164;5.282;2022-10-17T11:36:55;15.73;;;8.13;;
70148;SDS011;57514;52.164;5.282;2022-10-17T11:39:42;14.13;;;7.05;;
70148;SDS011;57514;52.164;5.282;2022-10-17T11:42:16;15.18;;;7.55;;
70148;SDS011;57514;52.164;5.282;2022-10-17T11:45:07;14.38;;;7.85;;
70148;SDS011;57514;52.164;5.282;2022-10-17T11:47:42;18.20;;;8.75;;
70148;SDS011;57514;52.164;5.282;2022-10-17T11:50:16;13.55;;;7.18;;
70148;SDS011;57514;52.164;5.282;2022-10-17T11:53:08;12.00;;;6.82;;
70148;SDS011;57514;52.164;5.282;2022-10-17T11:55:38;14.73;;;7.40;;
70148;SDS011;57514;52.164;5.282;2022-10-17T12:01:11;15.38;;;6.72;;
70148;SDS011;57514;52.164;5.282;2022-10-17T12:11:50;13.48;;;7.63;;
70148;SDS011;57514;52.164;5.282;2022-10-17T12:17:33;15.65;;;7.10;;
70148;SDS011;57514;52.164;5.282;2022-10-17T12:22:47;13.13;;;7.30;;
70148;SDS011;57514;52.164;5.282;2022-10-17T12:25:26;11.20;;;6.28;;
70148;SDS011;57514;52.164;5.282;2022-10-17T12:30:35;11.15;;;6.28;;
70148;SDS011;57514;52.164;5.282;2022-10-17T12:33:15;10.55;;;4.90;;
70148;SDS011;57514;52.164;5.282;2022-10-17T12:35:48;11.60;;;6.13;;
70148;SDS011;57514;52.164;5.282;2022-10-17T12:45:45;9.77;;;5.45;;
70148;SDS011;57514;52.164;5.282;2022-10-17T12:48:47;12.48;;;5.50;;
70148;SDS011;57514;52.164;5.282;2022-10-17T12:51:06;11.93;;;5.07;;
70148;SDS011;57514;52.164;5.282;2022-10-17T12:53:57;10.07;;;5.13;;
70148;SDS011;57514;52.164;5.282;2022-10-17T12:56:33;10.30;;;4.95;;
70148;SDS011;57514;52.164;5.282;2022-10-17T12:59:06;11.68;;;4.65;;
70148;SDS011;57514;52.164;5.282;2022-10-17T13:01:42;13.98;;;5.72;;
70148;SDS011;57514;52.164;5.282;2022-10-17T13:04:16;11.65;;;5.47;;
70148;SDS011;57514;52.164;5.282;2022-10-17T13:06:47;10.63;;;5.07;;
70148;SDS011;57514;52.164;5.282;2022-10-17T13:09:29;9.90;;;4.68;;
70148;SDS011;57514;52.164;5.282;2022-10-17T13:11:57;11.43;;;4.97;;
70148;SDS011;57514;52.164;5.282;2022-10-17T13:14:25;11.82;;;4.90;;
70148;SDS011;57514;52.164;5.282;2022-10-17T13:16:56;11.13;;;5.15;;
70148;SDS011;57514;52.164;5.282;2022-10-17T13:19:38;11.70;;;6.03;;
70148;SDS011;57514;52.164;5.282;2022-10-17T13:22:12;11.43;;;5.13;;
70148;SDS011;57514;52.164;5.282;2022-10-17T13:24:45;10.75;;;5.47;;
70148;SDS011;57514;52.164;5.282;2022-10-17T13:27:22;15.60;;;4.70;;
70148;SDS011;57514;52.164;5.282;2022-10-17T13:29:49;12.52;;;6.05;;
70148;SDS011;57514;52.164;5.282;2022-10-17T13:32:17;12.45;;;7.22;;
70148;SDS011;57514;52.164;5.282;2022-10-17T13:34:44;13.95;;;6.65;;
70148;SDS011;57514;52.164;5.282;2022-10-17T13:37:11;13.00;;;5.60;;
70148;SDS011;57514;52.164;5.282;2022-10-17T13:39:40;12.43;;;5.93;;
70148;SDS011;57514;52.164;5.282;2022-10-17T13:42:25;16.83;;;6.50;;
70148;SDS011;57514;52.164;5.282;2022-10-17T13:44:55;17.58;;;6.95;;
70148;SDS011;57514;52.164;5.282;2022-10-17T13:47:24;13.95;;;7.53;;
70148;SDS011;57514;52.164;5.282;2022-10-17T13:49:57;19.85;;;11.63;;
70148;SDS011;57514;52.164;5.282;2022-10-17T13:52:26;15.07;;;7.15;;
70148;SDS011;57514;52.164;5.282;2022-10-17T13:55:05;10.15;;;5.45;;
70148;SDS011;57514;52.164;5.282;2022-10-17T13:57:34;13.43;;;6.75;;
70148;SDS011;57514;52.164;5.282;2022-10-17T14:00:03;14.07;;;7.45;;
70148;SDS011;57514;52.164;5.282;2022-10-17T14:02:41;18.48;;;7.07;;
70148;SDS011;57514;52.164;5.282;2022-10-17T14:05:12;13.93;;;7.55;;
70148;SDS011;57514;52.164;5.282;2022-10-17T14:10:33;13.95;;;7.22;;
70148;SDS011;57514;52.164;5.282;2022-10-17T14:13:04;13.88;;;7.53;;
70148;SDS011;57514;52.164;5.282;2022-10-17T14:15:35;13.30;;;7.85;;
70148;SDS011;57514;52.164;5.282;2022-10-17T14:18:03;16.00;;;8.27;;
70148;SDS011;57514;52.164;5.282;2022-10-17T14:20:34;18.48;;;8.27;;
70148;SDS011;57514;52.164;5.282;2022-10-17T14:26:09;15.68;;;8.55;;
70148;SDS011;57514;52.164;5.282;2022-10-17T14:28:40;16.25;;;9.15;;
70148;SDS011;57514;52.164;5.282;2022-10-17T14:31:09;19.45;;;9.75;;
70148;SDS011;57514;52.164;5.282;2022-10-17T14:33:57;16.80;;;9.95;;
70148;SDS011;57514;52.164;5.282;2022-10-17T14:36:33;21.02;;;9.90;;
70148;SDS011;57514;52.164;5.282;2022-10-17T14:39:04;13.93;;;7.82;;
70148;SDS011;57514;52.164;5.282;2022-10-17T14:41:40;16.38;;;9.82;;
70148;SDS011;57514;52.164;5.282;2022-10-17T14:44:14;16.70;;;9.13;;
70148;SDS011;57514;52.164;5.282;2022-10-17T14:46:52;20.20;;;10.25;;
70148;SDS011;57514;52.164;5.282;2022-10-17T14:49:37;16.95;;;9.73;;
70148;SDS011;57514;52.164;5.282;2022-10-17T14:52:10;16.95;;;10.05;;
70148;SDS011;57514;52.164;5.282;2022-10-17T14:54:43;17.85;;;10.90;;
70148;SDS011;57514;52.164;5.282;2022-10-17T15:00:15;16.77;;;7.65;;
70148;SDS011;57514;52.164;5.282;2022-10-17T15:02:43;15.95;;;8.20;;
70148;SDS011;57514;52.164;5.282;2022-10-17T15:05:11;18.95;;;10.27;;
70148;SDS011;57514;52.164;5.282;2022-10-17T15:07:39;19.88;;;9.85;;
70148;SDS011;57514;52.164;5.282;2022-10-17T15:10:23;19.05;;;9.40;;
70148;SDS011;57514;52.164;5.282;2022-10-17T15:13:01;20.55;;;11.23;;
70148;SDS011;57514;52.164;5.282;2022-10-17T15:15:48;21.23;;;12.07;;
70148;SDS011;57514;52.164;5.282;2022-10-17T15:18:17;20.27;;;11.27;;
70148;SDS011;57514;52.164;5.282;2022-10-17T15:20:44;19.63;;;10.13;;
70148;SDS011;57514;52.164;5.282;2022-10-17T15:23:11;16.48;;;9.32;;
70148;SDS011;57514;52.164;5.282;2022-10-17T15:25:38;18.05;;;8.40;;
70148;SDS011;57514;52.164;5.282;2022-10-17T15:28:05;17.45;;;10.18;;
70148;SDS011;57514;52.164;5.282;2022-10-17T15:30:34;21.73;;;10.45;;
70148;SDS011;57514;52.164;5.282;2022-10-17T15:33:01;15.93;;;9.80;;
70148;SDS011;57514;52.164;5.282;2022-10-17T15:35:29;20.55;;;10.38;;
70148;SDS011;57514;52.164;5.282;2022-10-17T15:37:56;20.75;;;9.63;;
70148;SDS011;57514;52.164;5.282;2022-10-17T15:40:24;19.98;;;10.52;;
70148;SDS011;57514;52.164;5.282;2022-10-17T15:42:55;19.27;;;9.25;;
70148;SDS011;57514;52.164;5.282;2022-10-17T15:45:22;21.40;;;10.63;;
70148;SDS011;57514;52.164;5.282;2022-10-17T15:47:57;15.77;;;8.15;;
70148;SDS011;57514;52.164;5.282;2022-10-17T15:50:29;17.85;;;9.45;;
70148;SDS011;57514;52.164;5.282;2022-10-17T15:52:56;18.65;;;9.20;;
70148;SDS011;57514;52.164;5.282;2022-10-17T15:55:23;18.75;;;9.77;;
70148;SDS011;57514;52.164;5.282;2022-10-17T15:57:50;19.70;;;10.50;;
70148;SDS011;57514;52.164;5.282;2022-10-17T16:00:19;21.23;;;8.70;;
70148;SDS011;57514;52.164;5.282;2022-10-17T16:02:48;18.42;;;8.68;;
70148;SDS011;57514;52.164;5.282;2022-10-17T16:05:19;21.63;;;9.43;;
70148;SDS011;57514;52.164;5.282;2022-10-17T16:07:48;16.27;;;8.32;;
70148;SDS011;57514;52.164;5.282;2022-10-17T16:10:17;16.63;;;9.02;;
70148;SDS011;57514;52.164;5.282;2022-10-17T16:12:45;16.85;;;8.63;;
70148;SDS011;57514;52.164;5.282;2022-10-17T16:15:19;21.60;;;9.70;;
70148;SDS011;57514;52.164;5.282;2022-10-17T16:17:50;16.40;;;9.25;;
70148;SDS011;57514;52.164;5.282;2022-10-17T16:20:18;19.13;;;8.02;;